Archival Weather

Abadan

Abadan, Iran (OIAA)

Report from: Thursday, September 21, 2023 1:00 PM UTC
Current time: Sunday, February 25, 2024 9:54 PM UTC

Current weather – Weather history – Daily summaries
Weather forecast

Temperature45.0°C (113.0°F)
Heat index41.3°C (106.3°F)
Dew point3.0°C (37.4°F)
Winds 12 kts (6.2 m/s, 13.8 mph) North (360°)
Clouds Sky clear
Altimeter29.65 in.Hg (1004 mB)
Relative humidity8 %
Density altitude3,762 ft. (1,147 m)
Remarks Ceiling and visibility OK
Flight conditions Visual Meteorological Conditions
Raw dataOIAA 211300Z 36012KT CAVOK 45/03 Q1004
An error has occurred. This application may no longer respond until reloaded. Reload 🗙